Terminal Aerodrome Forecast
Issued by NWS

Home | Current Version | Previous Version | Graphics & Text | Print | Product List | Glossary On
Versions: 1 2 3 4 5 6 7 8 9 10 11 12 13 14
000
FTUS43 KMPX 011120
TAFAXN
TAF
KAXN 011120Z 0112/0212 VRB03KT P6SM SKC
     FM011400 22008KT P6SM SCT100
     FM012200 VRB04KT P6SM SCT080 PROB30 0123/0203 5SM TSRA OVC060CB
     FM020400 23006KT P6SM SCT250=

USA.gov is the U.S. government's official web portal to all federal, state and local government web resources and services.